sensor_id;sensor_type;location;lat;lon;timestamp;pressure;altitude;pressure_sealevel;temperature
82006;BMP280;71529;47.484;19.064;2023-07-16T00:00:27;100396.53;;;26.64
82006;BMP280;71529;47.484;19.064;2023-07-16T00:02:57;100404.97;;;26.60
82006;BMP280;71529;47.484;19.064;2023-07-16T00:05:25;100412.19;;;26.57
82006;BMP280;71529;47.484;19.064;2023-07-16T00:07:54;100410.97;;;26.59
82006;BMP280;71529;47.484;19.064;2023-07-16T00:10:23;100402.75;;;26.59
82006;BMP280;71529;47.484;19.064;2023-07-16T00:12:51;100411.22;;;26.61
82006;BMP280;71529;47.484;19.064;2023-07-16T00:15:19;100407.56;;;26.69
82006;BMP280;71529;47.484;19.064;2023-07-16T00:17:47;100407.50;;;26.64
82006;BMP280;71529;47.484;19.064;2023-07-16T00:20:15;100401.97;;;26.58
82006;BMP280;71529;47.484;19.064;2023-07-16T00:22:43;100406.97;;;26.60
82006;BMP280;71529;47.484;19.064;2023-07-16T00:25:12;100400.34;;;26.46
82006;BMP280;71529;47.484;19.064;2023-07-16T00:27:41;100409.31;;;26.46
82006;BMP280;71529;47.484;19.064;2023-07-16T00:30:09;100405.56;;;26.44
82006;BMP280;71529;47.484;19.064;2023-07-16T00:32:38;100414.53;;;26.44
82006;BMP280;71529;47.484;19.064;2023-07-16T00:35:07;100406.56;;;26.46
82006;BMP280;71529;47.484;19.064;2023-07-16T00:37:54;100403.56;;;26.44
82006;BMP280;71529;47.484;19.064;2023-07-16T00:40:23;100401.53;;;26.39
82006;BMP280;71529;47.484;19.064;2023-07-16T00:42:51;100404.75;;;26.37
82006;BMP280;71529;47.484;19.064;2023-07-16T00:45:19;100408.03;;;26.42
82006;BMP280;71529;47.484;19.064;2023-07-16T00:47:47;100400.03;;;26.38
82006;BMP280;71529;47.484;19.064;2023-07-16T00:50:15;100401.44;;;26.33
82006;BMP280;71529;47.484;19.064;2023-07-16T00:52:44;100393.53;;;26.35
82006;BMP280;71529;47.484;19.064;2023-07-16T00:55:12;100397.44;;;26.29
82006;BMP280;71529;47.484;19.064;2023-07-16T00:57:41;100393.84;;;26.23
82006;BMP280;71529;47.484;19.064;2023-07-16T01:00:11;100391.81;;;26.17
82006;BMP280;71529;47.484;19.064;2023-07-16T01:02:39;100378.84;;;26.12
82006;BMP280;71529;47.484;19.064;2023-07-16T01:05:07;100389.06;;;26.17
82006;BMP280;71529;47.484;19.064;2023-07-16T01:07:37;100386.53;;;26.14
82006;BMP280;71529;47.484;19.064;2023-07-16T01:10:06;100386.75;;;26.10
82006;BMP280;71529;47.484;19.064;2023-07-16T01:12:36;100383.06;;;26.13
82006;BMP280;71529;47.484;19.064;2023-07-16T01:15:06;100376.75;;;26.07
82006;BMP280;71529;47.484;19.064;2023-07-16T01:17:34;100389.78;;;26.12
82006;BMP280;71529;47.484;19.064;2023-07-16T01:20:03;100380.91;;;26.02
82006;BMP280;71529;47.484;19.064;2023-07-16T01:22:47;100379.69;;;26.04
82006;BMP280;71529;47.484;19.064;2023-07-16T01:25:29;100375.75;;;26.05
82006;BMP280;71529;47.484;19.064;2023-07-16T01:28:16;100379.84;;;25.94
82006;BMP280;71529;47.484;19.064;2023-07-16T01:30:52;100382.03;;;25.90
82006;BMP280;71529;47.484;19.064;2023-07-16T01:33:23;100381.81;;;25.94
82006;BMP280;71529;47.484;19.064;2023-07-16T01:35:52;100377.84;;;25.95
82006;BMP280;71529;47.484;19.064;2023-07-16T01:38:21;100373.41;;;25.97
82006;BMP280;71529;47.484;19.064;2023-07-16T01:40:50;100376.28;;;25.88
82006;BMP280;71529;47.484;19.064;2023-07-16T01:43:18;100371.75;;;25.85
82006;BMP280;71529;47.484;19.064;2023-07-16T01:45:46;100374.44;;;25.79
82006;BMP280;71529;47.484;19.064;2023-07-16T01:48:24;100373.84;;;25.75
82006;BMP280;71529;47.484;19.064;2023-07-16T01:50:56;100375.66;;;25.78
82006;BMP280;71529;47.484;19.064;2023-07-16T01:53:25;100374.91;;;25.78
82006;BMP280;71529;47.484;19.064;2023-07-16T01:55:53;100381.38;;;25.80
82006;BMP280;71529;47.484;19.064;2023-07-16T01:58:21;100380.06;;;25.76
82006;BMP280;71529;47.484;19.064;2023-07-16T02:00:49;100378.38;;;25.78
82006;BMP280;71529;47.484;19.064;2023-07-16T02:03:19;100386.53;;;25.73
82006;BMP280;71529;47.484;19.064;2023-07-16T02:05:48;100378.16;;;25.61
82006;BMP280;71529;47.484;19.064;2023-07-16T02:08:16;100376.09;;;25.56
82006;BMP280;71529;47.484;19.064;2023-07-16T02:10:44;100379.13;;;25.43
82006;BMP280;71529;47.484;19.064;2023-07-16T02:13:14;100369.69;;;25.44
82006;BMP280;71529;47.484;19.064;2023-07-16T02:15:43;100373.06;;;25.54
82006;BMP280;71529;47.484;19.064;2023-07-16T02:18:11;100372.16;;;25.42
82006;BMP280;71529;47.484;19.064;2023-07-16T02:20:40;100372.25;;;25.48
82006;BMP280;71529;47.484;19.064;2023-07-16T02:23:08;100367.13;;;25.41
82006;BMP280;71529;47.484;19.064;2023-07-16T02:25:36;100364.22;;;25.44
82006;BMP280;71529;47.484;19.064;2023-07-16T02:28:04;100369.13;;;25.40
82006;BMP280;71529;47.484;19.064;2023-07-16T02:30:32;100365.91;;;25.42
82006;BMP280;71529;47.484;19.064;2023-07-16T02:33:00;100358.50;;;25.42
82006;BMP280;71529;47.484;19.064;2023-07-16T02:35:29;100361.88;;;25.37
82006;BMP280;71529;47.484;19.064;2023-07-16T02:37:58;100362.56;;;25.32
82006;BMP280;71529;47.484;19.064;2023-07-16T02:40:26;100377.34;;;25.40
82006;BMP280;71529;47.484;19.064;2023-07-16T02:42:54;100372.63;;;25.26
82006;BMP280;71529;47.484;19.064;2023-07-16T02:45:22;100374.72;;;25.31
82006;BMP280;71529;47.484;19.064;2023-07-16T02:47:50;100371.91;;;25.25
82006;BMP280;71529;47.484;19.064;2023-07-16T02:50:18;100375.34;;;25.26
82006;BMP280;71529;47.484;19.064;2023-07-16T02:52:46;100378.66;;;25.30
82006;BMP280;71529;47.484;19.064;2023-07-16T02:55:16;100377.38;;;25.25
82006;BMP280;71529;47.484;19.064;2023-07-16T02:57:44;100368.22;;;25.29
82006;BMP280;71529;47.484;19.064;2023-07-16T03:00:13;100377.00;;;25.18
82006;BMP280;71529;47.484;19.064;2023-07-16T03:02:41;100367.00;;;25.15
82006;BMP280;71529;47.484;19.064;2023-07-16T03:05:09;100367.94;;;25.12
82006;BMP280;71529;47.484;19.064;2023-07-16T03:07:37;100374.34;;;25.08
82006;BMP280;71529;47.484;19.064;2023-07-16T03:10:05;100375.69;;;25.13
82006;BMP280;71529;47.484;19.064;2023-07-16T03:12:35;100375.28;;;25.05
82006;BMP280;71529;47.484;19.064;2023-07-16T03:15:08;100381.88;;;25.29
82006;BMP280;71529;47.484;19.064;2023-07-16T03:17:36;100389.81;;;25.12
82006;BMP280;71529;47.484;19.064;2023-07-16T03:20:05;100394.81;;;25.13
82006;BMP280;71529;47.484;19.064;2023-07-16T03:22:34;100385.63;;;25.16
82006;BMP280;71529;47.484;19.064;2023-07-16T03:25:02;100389.50;;;25.09
82006;BMP280;71529;47.484;19.064;2023-07-16T03:27:30;100385.81;;;25.13
82006;BMP280;71529;47.484;19.064;2023-07-16T03:30:00;100398.28;;;25.14
82006;BMP280;71529;47.484;19.064;2023-07-16T03:32:28;100400.75;;;25.12
82006;BMP280;71529;47.484;19.064;2023-07-16T03:35:16;100402.22;;;25.13
82006;BMP280;71529;47.484;19.064;2023-07-16T03:37:44;100390.19;;;25.04
82006;BMP280;71529;47.484;19.064;2023-07-16T03:40:13;100390.75;;;25.08
82006;BMP280;71529;47.484;19.064;2023-07-16T03:42:42;100404.31;;;25.18
82006;BMP280;71529;47.484;19.064;2023-07-16T03:45:12;100393.75;;;25.11
82006;BMP280;71529;47.484;19.064;2023-07-16T03:47:41;100402.91;;;25.22
82006;BMP280;71529;47.484;19.064;2023-07-16T03:50:10;100401.69;;;25.08
82006;BMP280;71529;47.484;19.064;2023-07-16T03:52:38;100414.28;;;24.91
82006;BMP280;71529;47.484;19.064;2023-07-16T03:55:07;100414.09;;;24.95
82006;BMP280;71529;47.484;19.064;2023-07-16T03:57:35;100415.78;;;24.92
82006;BMP280;71529;47.484;19.064;2023-07-16T04:00:04;100417.31;;;24.93
82006;BMP280;71529;47.484;19.064;2023-07-16T04:02:34;100422.41;;;25.00
82006;BMP280;71529;47.484;19.064;2023-07-16T04:05:02;100420.25;;;25.04
82006;BMP280;71529;47.484;19.064;2023-07-16T04:07:31;100422.00;;;24.93
82006;BMP280;71529;47.484;19.064;2023-07-16T04:09:59;100423.06;;;24.95
82006;BMP280;71529;47.484;19.064;2023-07-16T04:12:27;100418.06;;;25.08
82006;BMP280;71529;47.484;19.064;2023-07-16T04:14:56;100420.34;;;25.10
82006;BMP280;71529;47.484;19.064;2023-07-16T04:17:24;100421.66;;;25.00
82006;BMP280;71529;47.484;19.064;2023-07-16T04:19:54;100423.06;;;24.95
82006;BMP280;71529;47.484;19.064;2023-07-16T04:22:22;100418.06;;;24.94
82006;BMP280;71529;47.484;19.064;2023-07-16T04:24:50;100420.44;;;25.01
82006;BMP280;71529;47.484;19.064;2023-07-16T04:27:18;100430.88;;;25.02
82006;BMP280;71529;47.484;19.064;2023-07-16T04:29:46;100429.94;;;25.05
82006;BMP280;71529;47.484;19.064;2023-07-16T04:32:14;100426.75;;;25.07
82006;BMP280;71529;47.484;19.064;2023-07-16T04:34:42;100432.09;;;25.16
82006;BMP280;71529;47.484;19.064;2023-07-16T04:37:11;100426.38;;;25.14
82006;BMP280;71529;47.484;19.064;2023-07-16T04:39:39;100437.66;;;25.07
82006;BMP280;71529;47.484;19.064;2023-07-16T04:42:07;100419.31;;;25.07
82006;BMP280;71529;47.484;19.064;2023-07-16T04:44:35;100436.81;;;25.16
82006;BMP280;71529;47.484;19.064;2023-07-16T04:47:04;100436.25;;;25.12
82006;BMP280;71529;47.484;19.064;2023-07-16T04:49:34;100426.38;;;25.14
82006;BMP280;71529;47.484;19.064;2023-07-16T04:52:02;100434.09;;;25.16
82006;BMP280;71529;47.484;19.064;2023-07-16T04:54:35;100439.94;;;25.23
82006;BMP280;71529;47.484;19.064;2023-07-16T04:57:06;100433.91;;;25.19
82006;BMP280;71529;47.484;19.064;2023-07-16T04:59:34;100436.81;;;25.16
82006;BMP280;71529;47.484;19.064;2023-07-16T05:02:05;100450.09;;;25.23
82006;BMP280;71529;47.484;19.064;2023-07-16T05:04:34;100453.13;;;25.25
82006;BMP280;71529;47.484;19.064;2023-07-16T05:07:02;100453.53;;;25.33
82006;BMP280;71529;47.484;19.064;2023-07-16T05:09:30;100451.50;;;25.33
82006;BMP280;71529;47.484;19.064;2023-07-16T05:12:00;100456.16;;;25.27
82006;BMP280;71529;47.484;19.064;2023-07-16T05:14:28;100459.38;;;25.25
82006;BMP280;71529;47.484;19.064;2023-07-16T05:16:57;100456.25;;;25.33
82006;BMP280;71529;47.484;19.064;2023-07-16T05:19:25;100456.81;;;25.22
82006;BMP280;71529;47.484;19.064;2023-07-16T05:21:53;100452.59;;;25.21
82006;BMP280;71529;47.484;19.064;2023-07-16T05:24:21;100451.25;;;25.31
82006;BMP280;71529;47.484;19.064;2023-07-16T05:26:49;100454.25;;;25.33
82006;BMP280;71529;47.484;19.064;2023-07-16T05:29:19;100448.97;;;25.30
82006;BMP280;71529;47.484;19.064;2023-07-16T05:31:47;100443.25;;;25.42
82006;BMP280;71529;47.484;19.064;2023-07-16T05:34:15;100439.75;;;25.42
82006;BMP280;71529;47.484;19.064;2023-07-16T05:36:43;100445.59;;;25.50
82006;BMP280;71529;47.484;19.064;2023-07-16T05:39:12;100441.34;;;25.49
82006;BMP280;71529;47.484;19.064;2023-07-16T05:41:40;100437.28;;;25.44
82006;BMP280;71529;47.484;19.064;2023-07-16T05:44:08;100446.38;;;25.50
82006;BMP280;71529;47.484;19.064;2023-07-16T05:46:37;100447.94;;;25.57
82006;BMP280;71529;47.484;19.064;2023-07-16T05:49:06;100458.22;;;25.62
82006;BMP280;71529;47.484;19.064;2023-07-16T05:51:33;100449.81;;;25.66
82006;BMP280;71529;47.484;19.064;2023-07-16T05:54:02;100449.00;;;25.59
82006;BMP280;71529;47.484;19.064;2023-07-16T05:56:30;100441.16;;;25.67
82006;BMP280;71529;47.484;19.064;2023-07-16T05:58:58;100448.38;;;25.70
82006;BMP280;71529;47.484;19.064;2023-07-16T06:01:26;100446.44;;;25.71
82006;BMP280;71529;47.484;19.064;2023-07-16T06:03:56;100453.31;;;25.66
82006;BMP280;71529;47.484;19.064;2023-07-16T06:06:24;100456.41;;;25.74
82006;BMP280;71529;47.484;19.064;2023-07-16T06:08:52;100462.91;;;25.76
82006;BMP280;71529;47.484;19.064;2023-07-16T06:11:20;100458.97;;;25.77
82006;BMP280;71529;47.484;19.064;2023-07-16T06:13:48;100457.72;;;25.78
82006;BMP280;71529;47.484;19.064;2023-07-16T06:16:16;100452.78;;;25.82
82006;BMP280;71529;47.484;19.064;2023-07-16T06:18:44;100461.56;;;25.87
82006;BMP280;71529;47.484;19.064;2023-07-16T06:21:14;100467.53;;;25.85
82006;BMP280;71529;47.484;19.064;2023-07-16T06:23:42;100458.56;;;25.85
82006;BMP280;71529;47.484;19.064;2023-07-16T06:26:10;100459.50;;;25.81
82006;BMP280;71529;47.484;19.064;2023-07-16T06:28:38;100459.78;;;25.83
82006;BMP280;71529;47.484;19.064;2023-07-16T06:31:07;100462.78;;;25.86
82006;BMP280;71529;47.484;19.064;2023-07-16T06:33:35;100456.91;;;25.93
82006;BMP280;71529;47.484;19.064;2023-07-16T06:36:03;100461.16;;;25.94
82006;BMP280;71529;47.484;19.064;2023-07-16T06:38:33;100456.53;;;26.00
82006;BMP280;71529;47.484;19.064;2023-07-16T06:41:01;100470.97;;;26.00
82006;BMP280;71529;47.484;19.064;2023-07-16T06:43:29;100457.56;;;26.02
82006;BMP280;71529;47.484;19.064;2023-07-16T06:45:57;100452.09;;;26.02
82006;BMP280;71529;47.484;19.064;2023-07-16T06:48:25;100462.09;;;26.06
82006;BMP280;71529;47.484;19.064;2023-07-16T06:50:53;100471.34;;;26.08
82006;BMP280;71529;47.484;19.064;2023-07-16T06:53:21;100464.91;;;26.11
82006;BMP280;71529;47.484;19.064;2023-07-16T06:55:51;100458.22;;;26.12
82006;BMP280;71529;47.484;19.064;2023-07-16T06:58:19;100461.22;;;26.14
82006;BMP280;71529;47.484;19.064;2023-07-16T07:00:47;100453.69;;;26.30
82006;BMP280;71529;47.484;19.064;2023-07-16T07:03:15;100452.94;;;26.29
82006;BMP280;71529;47.484;19.064;2023-07-16T07:05:43;100451.22;;;26.32
82006;BMP280;71529;47.484;19.064;2023-07-16T07:08:11;100445.66;;;26.47
82006;BMP280;71529;47.484;19.064;2023-07-16T07:10:39;100449.91;;;26.48
82006;BMP280;71529;47.484;19.064;2023-07-16T07:13:08;100439.44;;;26.46
82006;BMP280;71529;47.484;19.064;2023-07-16T07:15:36;100437.94;;;26.45
82006;BMP280;71529;47.484;19.064;2023-07-16T07:18:04;100434.84;;;26.79
82006;BMP280;71529;47.484;19.064;2023-07-16T07:20:33;100443.09;;;26.64
82006;BMP280;71529;47.484;19.064;2023-07-16T07:23:01;100445.84;;;26.64
82006;BMP280;71529;47.484;19.064;2023-07-16T07:25:30;100452.31;;;26.61
82006;BMP280;71529;47.484;19.064;2023-07-16T07:27:58;100441.75;;;26.53
82006;BMP280;71529;47.484;19.064;2023-07-16T07:30:27;100449.53;;;26.55
82006;BMP280;71529;47.484;19.064;2023-07-16T07:32:55;100449.75;;;26.57
82006;BMP280;71529;47.484;19.064;2023-07-16T07:35:23;100443.31;;;26.60
82006;BMP280;71529;47.484;19.064;2023-07-16T07:37:52;100446.84;;;26.61
82006;BMP280;71529;47.484;19.064;2023-07-16T07:40:20;100444.56;;;26.59
82006;BMP280;71529;47.484;19.064;2023-07-16T07:42:48;100432.09;;;26.58
82006;BMP280;71529;47.484;19.064;2023-07-16T07:47:51;100436.78;;;26.52
82006;BMP280;71529;47.484;19.064;2023-07-16T07:50:19;100436.00;;;26.51
82006;BMP280;71529;47.484;19.064;2023-07-16T07:52:47;100437.53;;;26.52
82006;BMP280;71529;47.484;19.064;2023-07-16T07:55:15;100443.00;;;26.52
82006;BMP280;71529;47.484;19.064;2023-07-16T07:57:43;100436.56;;;26.55
82006;BMP280;71529;47.484;19.064;2023-07-16T08:00:12;100434.78;;;26.52
82006;BMP280;71529;47.484;19.064;2023-07-16T08:02:40;100430.81;;;26.53
82006;BMP280;71529;47.484;19.064;2023-07-16T08:05:10;100431.34;;;26.57
82006;BMP280;71529;47.484;19.064;2023-07-16T08:07:38;100424.66;;;26.59
82006;BMP280;71529;47.484;19.064;2023-07-16T08:10:06;100427.66;;;26.61
82006;BMP280;71529;47.484;19.064;2023-07-16T08:12:34;100429.16;;;26.62
82006;BMP280;71529;47.484;19.064;2023-07-16T08:15:03;100427.19;;;26.62
82006;BMP280;71529;47.484;19.064;2023-07-16T08:17:34;100425.94;;;26.63
82006;BMP280;71529;47.484;19.064;2023-07-16T08:20:02;100424.97;;;26.66
82006;BMP280;71529;47.484;19.064;2023-07-16T08:22:32;100428.47;;;26.67
82006;BMP280;71529;47.484;19.064;2023-07-16T08:25:00;100429.97;;;26.68
82006;BMP280;71529;47.484;19.064;2023-07-16T08:27:30;100420.53;;;26.69
82006;BMP280;71529;47.484;19.064;2023-07-16T08:29:58;100422.03;;;26.70
82006;BMP280;71529;47.484;19.064;2023-07-16T08:32:26;100416.06;;;26.71
82006;BMP280;71529;47.484;19.064;2023-07-16T08:34:54;100420.31;;;26.72
82006;BMP280;71529;47.484;19.064;2023-07-16T08:37:22;100419.06;;;26.73
82006;BMP280;71529;47.484;19.064;2023-07-16T08:39:52;100421.31;;;26.75
82006;BMP280;71529;47.484;19.064;2023-07-16T08:42:21;100422.34;;;26.78
82006;BMP280;71529;47.484;19.064;2023-07-16T08:44:49;100419.13;;;26.79
82006;BMP280;71529;47.484;19.064;2023-07-16T08:47:17;100422.59;;;26.80
82006;BMP280;71529;47.484;19.064;2023-07-16T08:49:55;100415.66;;;26.79
82006;BMP280;71529;47.484;19.064;2023-07-16T08:52:26;100416.41;;;26.79
82006;BMP280;71529;47.484;19.064;2023-07-16T08:54:56;100401.88;;;26.73
82006;BMP280;71529;47.484;19.064;2023-07-16T08:57:26;100414.19;;;26.83
82006;BMP280;71529;47.484;19.064;2023-07-16T08:59:55;100418.44;;;26.84
82006;BMP280;71529;47.484;19.064;2023-07-16T09:02:23;100419.94;;;26.85
82006;BMP280;71529;47.484;19.064;2023-07-16T09:04:52;100418.66;;;26.86
82006;BMP280;71529;47.484;19.064;2023-07-16T09:07:21;100410.75;;;26.88
82006;BMP280;71529;47.484;19.064;2023-07-16T09:09:58;100416.47;;;26.90
82006;BMP280;71529;47.484;19.064;2023-07-16T09:12:27;100415.25;;;26.91
82006;BMP280;71529;47.484;19.064;2023-07-16T09:14:56;100420.22;;;26.93
82006;BMP280;71529;47.484;19.064;2023-07-16T09:17:25;100422.53;;;26.94
82006;BMP280;71529;47.484;19.064;2023-07-16T09:19:53;100416.03;;;26.98
82006;BMP280;71529;47.484;19.064;2023-07-16T09:22:22;100420.09;;;27.02
82006;BMP280;71529;47.484;19.064;2023-07-16T09:24:50;100410.16;;;27.05
82006;BMP280;71529;47.484;19.064;2023-07-16T09:27:19;100412.94;;;27.10
82006;BMP280;71529;47.484;19.064;2023-07-16T09:29:48;100401.47;;;27.12
82006;BMP280;71529;47.484;19.064;2023-07-16T09:32:18;100409.44;;;27.16
82006;BMP280;71529;47.484;19.064;2023-07-16T09:34:49;100416.22;;;27.20
82006;BMP280;71529;47.484;19.064;2023-07-16T09:37:18;100405.03;;;27.18
82006;BMP280;71529;47.484;19.064;2023-07-16T09:39:46;100415.81;;;27.27
82006;BMP280;71529;47.484;19.064;2023-07-16T09:42:14;100414.63;;;27.34
82006;BMP280;71529;47.484;19.064;2023-07-16T09:44:48;100408.91;;;27.38
82006;BMP280;71529;47.484;19.064;2023-07-16T09:47:16;100407.19;;;27.46
82006;BMP280;71529;47.484;19.064;2023-07-16T09:49:44;100407.97;;;27.52
82006;BMP280;71529;47.484;19.064;2023-07-16T09:52:14;100400.50;;;27.52
82006;BMP280;71529;47.484;19.064;2023-07-16T09:54:43;100405.03;;;27.61
82006;BMP280;71529;47.484;19.064;2023-07-16T09:57:14;100404.06;;;27.64
82006;BMP280;71529;47.484;19.064;2023-07-16T09:59:42;100407.59;;;27.70
82006;BMP280;71529;47.484;19.064;2023-07-16T10:02:14;100400.59;;;27.69
82006;BMP280;71529;47.484;19.064;2023-07-16T10:04:42;100402.13;;;27.70
82006;BMP280;71529;47.484;19.064;2023-07-16T10:07:19;100391.66;;;27.75
82006;BMP280;71529;47.484;19.064;2023-07-16T10:09:52;100389.19;;;27.77
82006;BMP280;71529;47.484;19.064;2023-07-16T10:12:21;100403.38;;;27.81
82006;BMP280;71529;47.484;19.064;2023-07-16T10:14:51;100386.47;;;27.82
82006;BMP280;71529;47.484;19.064;2023-07-16T10:17:21;100393.19;;;27.87
82006;BMP280;71529;47.484;19.064;2023-07-16T10:19:54;100387.47;;;27.91
82006;BMP280;71529;47.484;19.064;2023-07-16T10:22:32;100389.72;;;27.92
82006;BMP280;71529;47.484;19.064;2023-07-16T10:25:01;100387.75;;;27.93
82006;BMP280;71529;47.484;19.064;2023-07-16T10:27:31;100389.25;;;27.94
82006;BMP280;71529;47.484;19.064;2023-07-16T10:30:00;100384.50;;;28.00
82006;BMP280;71529;47.484;19.064;2023-07-16T10:32:32;100387.03;;;28.09
82006;BMP280;71529;47.484;19.064;2023-07-16T10:35:01;100398.53;;;28.13
82006;BMP280;71529;47.484;19.064;2023-07-16T10:37:29;100392.34;;;28.18
82006;BMP280;71529;47.484;19.064;2023-07-16T10:39:59;100387.06;;;28.20
82006;BMP280;71529;47.484;19.064;2023-07-16T10:42:27;100387.09;;;28.26
82006;BMP280;71529;47.484;19.064;2023-07-16T10:44:58;100383.34;;;28.29
82006;BMP280;71529;47.484;19.064;2023-07-16T10:47:31;100378.13;;;28.31
82006;BMP280;71529;47.484;19.064;2023-07-16T10:49:59;100383.38;;;28.40
82006;BMP280;71529;47.484;19.064;2023-07-16T10:52:27;100384.38;;;28.43
82006;BMP280;71529;47.484;19.064;2023-07-16T10:54:55;100381.41;;;28.46
82006;BMP280;71529;47.484;19.064;2023-07-16T10:57:25;100384.63;;;28.51
82006;BMP280;71529;47.484;19.064;2023-07-16T10:59:54;100383.66;;;28.54
82006;BMP280;71529;47.484;19.064;2023-07-16T11:02:23;100362.66;;;28.56
82006;BMP280;71529;47.484;19.064;2023-07-16T11:04:54;100378.94;;;28.60
82006;BMP280;71529;47.484;19.064;2023-07-16T11:07:24;100376.69;;;28.64
82006;BMP280;71529;47.484;19.064;2023-07-16T11:09:53;100378.94;;;28.71
82006;BMP280;71529;47.484;19.064;2023-07-16T11:12:23;100370.44;;;28.75
82006;BMP280;71529;47.484;19.064;2023-07-16T11:14:53;100369.19;;;28.76
82006;BMP280;71529;47.484;19.064;2023-07-16T11:17:22;100373.19;;;28.75
82006;BMP280;71529;47.484;19.064;2023-07-16T11:19:53;100373.19;;;28.80
82006;BMP280;71529;47.484;19.064;2023-07-16T11:22:24;100363.94;;;28.83
82006;BMP280;71529;47.484;19.064;2023-07-16T11:24:53;100358.94;;;28.88
82006;BMP280;71529;47.484;19.064;2023-07-16T11:27:23;100363.94;;;28.95
82006;BMP280;71529;47.484;19.064;2023-07-16T11:29:53;100364.44;;;28.99
82006;BMP280;71529;47.484;19.064;2023-07-16T11:32:30;100366.19;;;29.02
82006;BMP280;71529;47.484;19.064;2023-07-16T11:35:02;100361.91;;;29.01
82006;BMP280;71529;47.484;19.064;2023-07-16T11:37:32;100366.91;;;29.02
82006;BMP280;71529;47.484;19.064;2023-07-16T11:40:02;100365.91;;;29.00
82006;BMP280;71529;47.484;19.064;2023-07-16T11:42:32;100357.94;;;29.02
82006;BMP280;71529;47.484;19.064;2023-07-16T11:45:01;100368.94;;;29.02
82006;BMP280;71529;47.484;19.064;2023-07-16T11:47:30;100363.16;;;29.00
82006;BMP280;71529;47.484;19.064;2023-07-16T11:49:59;100354.19;;;29.05
82006;BMP280;71529;47.484;19.064;2023-07-16T11:52:29;100367.16;;;29.10
82006;BMP280;71529;47.484;19.064;2023-07-16T11:54:58;100360.13;;;29.15
82006;BMP280;71529;47.484;19.064;2023-07-16T11:57:27;100368.38;;;29.20
82006;BMP280;71529;47.484;19.064;2023-07-16T11:59:55;100360.63;;;29.25
82006;BMP280;71529;47.484;19.064;2023-07-16T12:02:25;100350.88;;;29.23
82006;BMP280;71529;47.484;19.064;2023-07-16T12:04:54;100365.84;;;29.34
82006;BMP280;71529;47.484;19.064;2023-07-16T12:07:32;100358.34;;;29.40
82006;BMP280;71529;47.484;19.064;2023-07-16T12:10:02;100362.34;;;29.45
82006;BMP280;71529;47.484;19.064;2023-07-16T12:12:30;100363.81;;;29.51
82006;BMP280;71529;47.484;19.064;2023-07-16T12:14:59;100354.78;;;29.56
82006;BMP280;71529;47.484;19.064;2023-07-16T12:17:27;100353.75;;;29.65
82006;BMP280;71529;47.484;19.064;2023-07-16T12:19:55;100351.22;;;29.73
82006;BMP280;71529;47.484;19.064;2023-07-16T12:22:23;100342.72;;;29.71
82006;BMP280;71529;47.484;19.064;2023-07-16T12:24:53;100355.19;;;29.77
82006;BMP280;71529;47.484;19.064;2023-07-16T12:27:21;100359.69;;;29.80
82006;BMP280;71529;47.484;19.064;2023-07-16T12:29:49;100353.66;;;29.82
82006;BMP280;71529;47.484;19.064;2023-07-16T12:32:19;100357.94;;;29.83
82006;BMP280;71529;47.484;19.064;2023-07-16T12:34:48;100359.38;;;29.90
82006;BMP280;71529;47.484;19.064;2023-07-16T12:37:16;100357.63;;;29.92
82006;BMP280;71529;47.484;19.064;2023-07-16T12:39:44;100360.63;;;29.94
82006;BMP280;71529;47.484;19.064;2023-07-16T12:42:13;100353.59;;;29.93
82006;BMP280;71529;47.484;19.064;2023-07-16T12:44:41;100350.09;;;29.93
82006;BMP280;71529;47.484;19.064;2023-07-16T12:47:09;100342.31;;;29.97
82006;BMP280;71529;47.484;19.064;2023-07-16T12:49:37;100342.03;;;30.01
82006;BMP280;71529;47.484;19.064;2023-07-16T12:52:06;100345.03;;;30.03
82006;BMP280;71529;47.484;19.064;2023-07-16T12:54:34;100344.50;;;30.10
82006;BMP280;71529;47.484;19.064;2023-07-16T12:57:02;100354.03;;;30.09
82006;BMP280;71529;47.484;19.064;2023-07-16T12:59:32;100343.72;;;30.15
82006;BMP280;71529;47.484;19.064;2023-07-16T13:02:00;100350.94;;;30.18
82006;BMP280;71529;47.484;19.064;2023-07-16T13:04:29;100349.72;;;30.13
82006;BMP280;71529;47.484;19.064;2023-07-16T13:06:57;100356.25;;;30.10
82006;BMP280;71529;47.484;19.064;2023-07-16T13:09:26;100357.03;;;30.05
82006;BMP280;71529;47.484;19.064;2023-07-16T13:11:55;100358.09;;;29.96
82006;BMP280;71529;47.484;19.064;2023-07-16T13:14:24;100359.38;;;29.90
82006;BMP280;71529;47.484;19.064;2023-07-16T13:16:53;100362.13;;;29.90
82006;BMP280;71529;47.484;19.064;2023-07-16T13:19:22;100358.41;;;29.87
82006;BMP280;71529;47.484;19.064;2023-07-16T13:21:51;100357.19;;;29.83
82006;BMP280;71529;47.484;19.064;2023-07-16T13:24:20;100347.41;;;29.82
82006;BMP280;71529;47.484;19.064;2023-07-16T13:26:49;100354.97;;;29.70
82006;BMP280;71529;47.484;19.064;2023-07-16T13:29:20;100357.22;;;29.71
82006;BMP280;71529;47.484;19.064;2023-07-16T13:31:48;100360.97;;;29.74
82006;BMP280;71529;47.484;19.064;2023-07-16T13:34:18;100361.94;;;29.76
82006;BMP280;71529;47.484;19.064;2023-07-16T13:36:46;100368.19;;;29.77
82006;BMP280;71529;47.484;19.064;2023-07-16T13:39:15;100363.97;;;29.76
82006;BMP280;71529;47.484;19.064;2023-07-16T13:41:44;100368.69;;;29.75
82006;BMP280;71529;47.484;19.064;2023-07-16T13:44:12;100360.97;;;29.74
82006;BMP280;71529;47.484;19.064;2023-07-16T13:46:41;100356.50;;;29.65
82006;BMP280;71529;47.484;19.064;2023-07-16T13:49:10;100359.50;;;29.67
82006;BMP280;71529;47.484;19.064;2023-07-16T13:51:41;100361.25;;;29.65
82006;BMP280;71529;47.484;19.064;2023-07-16T13:54:11;100358.78;;;29.55
82006;BMP280;71529;47.484;19.064;2023-07-16T13:56:40;100352.78;;;29.51